sensor_id;sensor_type;location;lat;lon;timestamp;temperature;humidity
20732;DHT22;10527;52.124;5.196;2023-04-24T00:01:55;10.10;99.90
20732;DHT22;10527;52.124;5.196;2023-04-24T00:04:22;10.20;99.90
20732;DHT22;10527;52.124;5.196;2023-04-24T00:06:52;10.10;99.90
20732;DHT22;10527;52.124;5.196;2023-04-24T00:09:24;10.20;99.90
20732;DHT22;10527;52.124;5.196;2023-04-24T00:11:51;10.20;99.90
20732;DHT22;10527;52.124;5.196;2023-04-24T00:14:18;10.30;99.90
20732;DHT22;10527;52.124;5.196;2023-04-24T00:16:45;10.10;99.90
20732;DHT22;10527;52.124;5.196;2023-04-24T00:19:12;10.10;99.90
20732;DHT22;10527;52.124;5.196;2023-04-24T00:21:40;10.00;99.90
20732;DHT22;10527;52.124;5.196;2023-04-24T00:24:08;10.10;99.90
20732;DHT22;10527;52.124;5.196;2023-04-24T00:26:35;10.10;99.90
20732;DHT22;10527;52.124;5.196;2023-04-24T00:29:02;10.20;99.90
20732;DHT22;10527;52.124;5.196;2023-04-24T00:31:29;10.20;99.90
20732;DHT22;10527;52.124;5.196;2023-04-24T00:33:56;10.00;99.90
20732;DHT22;10527;52.124;5.196;2023-04-24T00:36:23;10.00;99.90
20732;DHT22;10527;52.124;5.196;2023-04-24T00:38:49;10.00;99.90
20732;DHT22;10527;52.124;5.196;2023-04-24T00:41:16;10.00;99.90
20732;DHT22;10527;52.124;5.196;2023-04-24T00:43:43;10.00;99.90
20732;DHT22;10527;52.124;5.196;2023-04-24T00:46:10;10.00;99.90
20732;DHT22;10527;52.124;5.196;2023-04-24T00:48:39;10.00;99.90
20732;DHT22;10527;52.124;5.196;2023-04-24T00:51:06;10.00;99.90
20732;DHT22;10527;52.124;5.196;2023-04-24T00:53:33;10.00;99.90
20732;DHT22;10527;52.124;5.196;2023-04-24T00:56:01;10.00;99.90
20732;DHT22;10527;52.124;5.196;2023-04-24T00:58:29;10.00;99.90
20732;DHT22;10527;52.124;5.196;2023-04-24T01:00:57;10.00;99.90
20732;DHT22;10527;52.124;5.196;2023-04-24T01:03:28;10.00;99.90
20732;DHT22;10527;52.124;5.196;2023-04-24T01:05:57;10.10;99.90
20732;DHT22;10527;52.124;5.196;2023-04-24T01:08:26;10.10;99.90
20732;DHT22;10527;52.124;5.196;2023-04-24T01:10:55;10.10;99.90
20732;DHT22;10527;52.124;5.196;2023-04-24T01:13:24;10.10;99.90
20732;DHT22;10527;52.124;5.196;2023-04-24T01:15:51;10.10;99.90
20732;DHT22;10527;52.124;5.196;2023-04-24T01:18:22;10.10;99.90
20732;DHT22;10527;52.124;5.196;2023-04-24T01:20:51;10.20;99.90
20732;DHT22;10527;52.124;5.196;2023-04-24T01:23:21;10.20;99.90
20732;DHT22;10527;52.124;5.196;2023-04-24T01:25:49;10.20;99.90
20732;DHT22;10527;52.124;5.196;2023-04-24T01:28:16;10.10;99.90
20732;DHT22;10527;52.124;5.196;2023-04-24T01:30:44;10.10;99.90
20732;DHT22;10527;52.124;5.196;2023-04-24T01:33:11;10.10;99.90
20732;DHT22;10527;52.124;5.196;2023-04-24T01:35:40;10.20;99.90
20732;DHT22;10527;52.124;5.196;2023-04-24T01:38:07;10.10;99.90
20732;DHT22;10527;52.124;5.196;2023-04-24T01:40:34;10.10;99.90
20732;DHT22;10527;52.124;5.196;2023-04-24T01:43:01;10.20;99.90
20732;DHT22;10527;52.124;5.196;2023-04-24T01:45:28;10.20;99.90
20732;DHT22;10527;52.124;5.196;2023-04-24T01:47:56;10.30;99.90
20732;DHT22;10527;52.124;5.196;2023-04-24T01:50:24;10.30;99.90
20732;DHT22;10527;52.124;5.196;2023-04-24T01:52:51;10.30;99.90
20732;DHT22;10527;52.124;5.196;2023-04-24T01:55:18;10.20;99.90
20732;DHT22;10527;52.124;5.196;2023-04-24T01:57:44;10.30;99.90
20732;DHT22;10527;52.124;5.196;2023-04-24T02:00:12;10.30;99.90
20732;DHT22;10527;52.124;5.196;2023-04-24T02:02:40;10.40;99.90
20732;DHT22;10527;52.124;5.196;2023-04-24T02:05:11;10.30;99.90
20732;DHT22;10527;52.124;5.196;2023-04-24T02:07:38;10.40;99.90
20732;DHT22;10527;52.124;5.196;2023-04-24T02:10:05;10.40;99.90
20732;DHT22;10527;52.124;5.196;2023-04-24T02:12:32;10.50;99.90
20732;DHT22;10527;52.124;5.196;2023-04-24T02:15:00;10.50;99.90
20732;DHT22;10527;52.124;5.196;2023-04-24T02:17:26;10.50;99.90
20732;DHT22;10527;52.124;5.196;2023-04-24T02:19:53;10.40;99.90
20732;DHT22;10527;52.124;5.196;2023-04-24T02:22:20;10.40;99.90
20732;DHT22;10527;52.124;5.196;2023-04-24T02:24:47;10.40;99.90
20732;DHT22;10527;52.124;5.196;2023-04-24T02:27:14;10.40;99.90
20732;DHT22;10527;52.124;5.196;2023-04-24T02:29:41;10.30;99.90
20732;DHT22;10527;52.124;5.196;2023-04-24T02:32:08;10.30;99.90
20732;DHT22;10527;52.124;5.196;2023-04-24T02:34:41;10.40;99.90
20732;DHT22;10527;52.124;5.196;2023-04-24T02:37:08;10.40;99.90
20732;DHT22;10527;52.124;5.196;2023-04-24T02:39:35;10.30;99.90
20732;DHT22;10527;52.124;5.196;2023-04-24T02:42:02;10.30;99.90
20732;DHT22;10527;52.124;5.196;2023-04-24T02:44:29;10.30;99.90
20732;DHT22;10527;52.124;5.196;2023-04-24T02:46:55;10.30;99.90
20732;DHT22;10527;52.124;5.196;2023-04-24T02:49:22;10.30;99.90
20732;DHT22;10527;52.124;5.196;2023-04-24T02:51:49;10.30;99.90
20732;DHT22;10527;52.124;5.196;2023-04-24T02:54:16;10.40;99.90
20732;DHT22;10527;52.124;5.196;2023-04-24T02:56:45;10.30;99.90
20732;DHT22;10527;52.124;5.196;2023-04-24T02:59:12;10.20;99.90
20732;DHT22;10527;52.124;5.196;2023-04-24T03:01:39;10.20;99.90
20732;DHT22;10527;52.124;5.196;2023-04-24T03:04:06;10.20;99.90
20732;DHT22;10527;52.124;5.196;2023-04-24T03:06:34;10.10;99.90
20732;DHT22;10527;52.124;5.196;2023-04-24T03:09:01;10.20;99.90
20732;DHT22;10527;52.124;5.196;2023-04-24T03:11:29;10.20;99.90
20732;DHT22;10527;52.124;5.196;2023-04-24T03:13:56;10.20;99.90
20732;DHT22;10527;52.124;5.196;2023-04-24T03:16:23;10.20;99.90
20732;DHT22;10527;52.124;5.196;2023-04-24T03:18:50;10.10;99.90
20732;DHT22;10527;52.124;5.196;2023-04-24T03:21:17;10.10;99.90
20732;DHT22;10527;52.124;5.196;2023-04-24T03:23:44;10.10;99.90
20732;DHT22;10527;52.124;5.196;2023-04-24T03:26:10;10.10;99.90
20732;DHT22;10527;52.124;5.196;2023-04-24T03:28:37;10.10;99.90
20732;DHT22;10527;52.124;5.196;2023-04-24T03:31:04;10.10;99.90
20732;DHT22;10527;52.124;5.196;2023-04-24T03:33:31;10.10;99.90
20732;DHT22;10527;52.124;5.196;2023-04-24T03:35:57;10.10;99.90
20732;DHT22;10527;52.124;5.196;2023-04-24T03:38:24;10.20;99.90
20732;DHT22;10527;52.124;5.196;2023-04-24T03:40:51;10.10;99.90
20732;DHT22;10527;52.124;5.196;2023-04-24T03:43:18;10.20;99.90
20732;DHT22;10527;52.124;5.196;2023-04-24T03:45:45;10.20;99.90
20732;DHT22;10527;52.124;5.196;2023-04-24T03:48:12;10.20;99.90
20732;DHT22;10527;52.124;5.196;2023-04-24T03:50:39;10.20;99.90
20732;DHT22;10527;52.124;5.196;2023-04-24T03:53:05;10.30;99.90
20732;DHT22;10527;52.124;5.196;2023-04-24T03:55:32;10.30;99.90
20732;DHT22;10527;52.124;5.196;2023-04-24T03:57:59;10.40;99.90
20732;DHT22;10527;52.124;5.196;2023-04-24T04:00:26;10.50;99.90
20732;DHT22;10527;52.124;5.196;2023-04-24T04:02:52;10.50;99.90
20732;DHT22;10527;52.124;5.196;2023-04-24T04:05:20;10.50;99.90
20732;DHT22;10527;52.124;5.196;2023-04-24T04:07:46;10.60;99.90
20732;DHT22;10527;52.124;5.196;2023-04-24T04:10:13;10.70;99.90
20732;DHT22;10527;52.124;5.196;2023-04-24T04:12:41;10.60;99.90
20732;DHT22;10527;52.124;5.196;2023-04-24T04:15:08;10.60;99.90
20732;DHT22;10527;52.124;5.196;2023-04-24T04:17:35;10.60;99.90
20732;DHT22;10527;52.124;5.196;2023-04-24T04:20:05;10.60;99.90
20732;DHT22;10527;52.124;5.196;2023-04-24T04:22:41;10.70;99.90
20732;DHT22;10527;52.124;5.196;2023-04-24T04:25:11;10.70;99.90
20732;DHT22;10527;52.124;5.196;2023-04-24T04:27:40;10.70;99.90
20732;DHT22;10527;52.124;5.196;2023-04-24T04:30:08;10.70;99.90
20732;DHT22;10527;52.124;5.196;2023-04-24T04:32:36;10.60;99.90
20732;DHT22;10527;52.124;5.196;2023-04-24T04:35:03;10.70;99.90
20732;DHT22;10527;52.124;5.196;2023-04-24T04:37:32;10.70;99.90
20732;DHT22;10527;52.124;5.196;2023-04-24T04:40:05;10.70;99.90
20732;DHT22;10527;52.124;5.196;2023-04-24T04:42:33;10.80;99.90
20732;DHT22;10527;52.124;5.196;2023-04-24T04:45:00;10.70;99.90
20732;DHT22;10527;52.124;5.196;2023-04-24T04:47:28;10.70;99.90
20732;DHT22;10527;52.124;5.196;2023-04-24T04:49:59;10.70;99.90
20732;DHT22;10527;52.124;5.196;2023-04-24T04:52:26;10.70;99.90
20732;DHT22;10527;52.124;5.196;2023-04-24T04:54:53;10.70;99.90
20732;DHT22;10527;52.124;5.196;2023-04-24T04:57:20;10.60;99.90
20732;DHT22;10527;52.124;5.196;2023-04-24T04:59:47;10.60;99.90
20732;DHT22;10527;52.124;5.196;2023-04-24T05:02:14;10.40;99.90
20732;DHT22;10527;52.124;5.196;2023-04-24T05:04:41;10.30;99.90
20732;DHT22;10527;52.124;5.196;2023-04-24T05:07:09;10.30;99.90
20732;DHT22;10527;52.124;5.196;2023-04-24T05:09:36;10.40;99.90
20732;DHT22;10527;52.124;5.196;2023-04-24T05:12:03;10.20;99.90
20732;DHT22;10527;52.124;5.196;2023-04-24T05:14:30;10.30;99.90
20732;DHT22;10527;52.124;5.196;2023-04-24T05:16:57;10.30;99.90
20732;DHT22;10527;52.124;5.196;2023-04-24T05:19:25;10.20;99.90
20732;DHT22;10527;52.124;5.196;2023-04-24T05:21:51;10.10;99.90
20732;DHT22;10527;52.124;5.196;2023-04-24T05:24:21;10.00;99.90
20732;DHT22;10527;52.124;5.196;2023-04-24T05:26:47;9.90;99.90
20732;DHT22;10527;52.124;5.196;2023-04-24T05:29:14;9.90;99.90
20732;DHT22;10527;52.124;5.196;2023-04-24T05:31:41;9.90;99.90
20732;DHT22;10527;52.124;5.196;2023-04-24T05:34:08;9.90;99.90
20732;DHT22;10527;52.124;5.196;2023-04-24T05:36:36;9.90;99.90
20732;DHT22;10527;52.124;5.196;2023-04-24T05:39:03;9.80;99.90
20732;DHT22;10527;52.124;5.196;2023-04-24T05:41:34;9.70;99.90
20732;DHT22;10527;52.124;5.196;2023-04-24T05:44:01;9.70;99.90
20732;DHT22;10527;52.124;5.196;2023-04-24T05:46:27;9.70;99.90
20732;DHT22;10527;52.124;5.196;2023-04-24T05:48:54;9.70;99.90
20732;DHT22;10527;52.124;5.196;2023-04-24T05:51:21;9.90;99.90
20732;DHT22;10527;52.124;5.196;2023-04-24T05:53:48;10.00;99.90
20732;DHT22;10527;52.124;5.196;2023-04-24T05:56:15;10.00;99.90
20732;DHT22;10527;52.124;5.196;2023-04-24T05:58:42;10.10;99.90
20732;DHT22;10527;52.124;5.196;2023-04-24T06:01:09;10.10;99.90
20732;DHT22;10527;52.124;5.196;2023-04-24T06:03:37;10.10;99.90
20732;DHT22;10527;52.124;5.196;2023-04-24T06:06:07;10.10;99.90
20732;DHT22;10527;52.124;5.196;2023-04-24T06:08:35;10.00;99.90
20732;DHT22;10527;52.124;5.196;2023-04-24T06:11:02;10.00;99.90
20732;DHT22;10527;52.124;5.196;2023-04-24T06:13:30;10.00;99.90
20732;DHT22;10527;52.124;5.196;2023-04-24T06:15:57;9.90;99.90
20732;DHT22;10527;52.124;5.196;2023-04-24T06:18:23;9.70;99.90
20732;DHT22;10527;52.124;5.196;2023-04-24T06:20:50;9.50;99.90
20732;DHT22;10527;52.124;5.196;2023-04-24T06:23:18;9.50;99.90
20732;DHT22;10527;52.124;5.196;2023-04-24T06:25:45;9.40;99.90
20732;DHT22;10527;52.124;5.196;2023-04-24T06:28:12;9.40;99.90
20732;DHT22;10527;52.124;5.196;2023-04-24T06:30:39;9.40;99.90
20732;DHT22;10527;52.124;5.196;2023-04-24T06:33:05;9.30;99.90
20732;DHT22;10527;52.124;5.196;2023-04-24T06:35:45;9.30;99.90
20732;DHT22;10527;52.124;5.196;2023-04-24T06:38:12;9.30;99.90
20732;DHT22;10527;52.124;5.196;2023-04-24T06:40:39;9.20;99.90
20732;DHT22;10527;52.124;5.196;2023-04-24T06:43:06;9.20;99.90
20732;DHT22;10527;52.124;5.196;2023-04-24T06:45:32;9.20;99.90
20732;DHT22;10527;52.124;5.196;2023-04-24T06:47:59;9.10;99.90
20732;DHT22;10527;52.124;5.196;2023-04-24T06:50:26;9.10;99.90
20732;DHT22;10527;52.124;5.196;2023-04-24T06:52:53;9.10;99.90
20732;DHT22;10527;52.124;5.196;2023-04-24T06:55:20;9.00;99.90
20732;DHT22;10527;52.124;5.196;2023-04-24T06:57:46;9.10;99.90
20732;DHT22;10527;52.124;5.196;2023-04-24T07:00:13;9.00;99.90
20732;DHT22;10527;52.124;5.196;2023-04-24T07:02:40;9.10;99.90
20732;DHT22;10527;52.124;5.196;2023-04-24T07:05:08;9.00;99.90
20732;DHT22;10527;52.124;5.196;2023-04-24T07:07:35;9.00;99.90
20732;DHT22;10527;52.124;5.196;2023-04-24T07:10:05;9.10;99.90
20732;DHT22;10527;52.124;5.196;2023-04-24T07:12:32;9.10;99.90
20732;DHT22;10527;52.124;5.196;2023-04-24T07:15:00;9.10;99.90
20732;DHT22;10527;52.124;5.196;2023-04-24T07:17:27;9.20;99.90
20732;DHT22;10527;52.124;5.196;2023-04-24T07:19:54;9.10;99.90
20732;DHT22;10527;52.124;5.196;2023-04-24T07:22:21;9.10;99.90
20732;DHT22;10527;52.124;5.196;2023-04-24T07:24:47;9.10;99.90
20732;DHT22;10527;52.124;5.196;2023-04-24T07:27:14;9.10;99.90
20732;DHT22;10527;52.124;5.196;2023-04-24T07:29:42;9.10;99.90
20732;DHT22;10527;52.124;5.196;2023-04-24T07:32:12;9.10;99.90
20732;DHT22;10527;52.124;5.196;2023-04-24T07:34:39;9.10;99.90
20732;DHT22;10527;52.124;5.196;2023-04-24T07:37:06;9.20;99.90
20732;DHT22;10527;52.124;5.196;2023-04-24T07:39:33;9.30;99.90
20732;DHT22;10527;52.124;5.196;2023-04-24T07:42:00;9.20;99.90
20732;DHT22;10527;52.124;5.196;2023-04-24T07:44:28;9.20;99.90
20732;DHT22;10527;52.124;5.196;2023-04-24T07:46:55;9.20;99.90
20732;DHT22;10527;52.124;5.196;2023-04-24T07:49:23;9.20;99.90
20732;DHT22;10527;52.124;5.196;2023-04-24T07:51:50;9.20;99.90
20732;DHT22;10527;52.124;5.196;2023-04-24T07:54:16;9.20;99.90
20732;DHT22;10527;52.124;5.196;2023-04-24T07:56:46;9.20;99.90
20732;DHT22;10527;52.124;5.196;2023-04-24T07:59:12;9.20;99.90
20732;DHT22;10527;52.124;5.196;2023-04-24T08:01:39;9.10;99.90
20732;DHT22;10527;52.124;5.196;2023-04-24T08:04:07;9.10;99.90
20732;DHT22;10527;52.124;5.196;2023-04-24T08:06:35;9.10;99.90
20732;DHT22;10527;52.124;5.196;2023-04-24T08:09:02;9.10;99.90
20732;DHT22;10527;52.124;5.196;2023-04-24T08:11:29;8.90;99.90
20732;DHT22;10527;52.124;5.196;2023-04-24T08:13:56;9.00;99.90
20732;DHT22;10527;52.124;5.196;2023-04-24T08:16:23;8.90;99.90
20732;DHT22;10527;52.124;5.196;2023-04-24T08:18:52;9.00;99.90
20732;DHT22;10527;52.124;5.196;2023-04-24T08:21:19;8.90;99.90
20732;DHT22;10527;52.124;5.196;2023-04-24T08:23:47;9.00;99.90
20732;DHT22;10527;52.124;5.196;2023-04-24T08:26:13;9.10;99.90
20732;DHT22;10527;52.124;5.196;2023-04-24T08:28:41;9.10;99.90
20732;DHT22;10527;52.124;5.196;2023-04-24T08:31:08;9.10;99.90
20732;DHT22;10527;52.124;5.196;2023-04-24T08:33:35;9.00;99.90
20732;DHT22;10527;52.124;5.196;2023-04-24T08:36:03;9.00;99.90
20732;DHT22;10527;52.124;5.196;2023-04-24T08:38:31;9.00;99.90
20732;DHT22;10527;52.124;5.196;2023-04-24T08:40:59;9.10;99.90
20732;DHT22;10527;52.124;5.196;2023-04-24T08:43:28;9.10;99.90
20732;DHT22;10527;52.124;5.196;2023-04-24T08:45:56;9.10;99.90
20732;DHT22;10527;52.124;5.196;2023-04-24T08:48:24;9.00;99.90
20732;DHT22;10527;52.124;5.196;2023-04-24T08:50:58;9.20;99.90
20732;DHT22;10527;52.124;5.196;2023-04-24T08:53:26;9.10;99.90
20732;DHT22;10527;52.124;5.196;2023-04-24T08:55:55;9.20;99.90
20732;DHT22;10527;52.124;5.196;2023-04-24T08:58:25;9.10;99.90
20732;DHT22;10527;52.124;5.196;2023-04-24T09:01:00;9.10;99.90
20732;DHT22;10527;52.124;5.196;2023-04-24T09:03:28;9.30;99.90
20732;DHT22;10527;52.124;5.196;2023-04-24T09:05:57;9.40;99.90
20732;DHT22;10527;52.124;5.196;2023-04-24T09:08:25;9.40;99.90
20732;DHT22;10527;52.124;5.196;2023-04-24T09:10:52;9.30;99.90
20732;DHT22;10527;52.124;5.196;2023-04-24T09:13:20;9.20;99.90
20732;DHT22;10527;52.124;5.196;2023-04-24T09:15:47;9.30;99.90
20732;DHT22;10527;52.124;5.196;2023-04-24T09:18:14;9.30;99.90
20732;DHT22;10527;52.124;5.196;2023-04-24T09:21:04;9.30;99.90
20732;DHT22;10527;52.124;5.196;2023-04-24T09:23:34;9.50;99.90
20732;DHT22;10527;52.124;5.196;2023-04-24T09:26:02;9.50;99.90
20732;DHT22;10527;52.124;5.196;2023-04-24T09:28:34;9.60;99.90
20732;DHT22;10527;52.124;5.196;2023-04-24T09:31:12;9.50;99.90
20732;DHT22;10527;52.124;5.196;2023-04-24T09:34:03;9.40;99.90
20732;DHT22;10527;52.124;5.196;2023-04-24T09:36:34;9.50;99.90
20732;DHT22;10527;52.124;5.196;2023-04-24T09:39:10;9.50;99.90
20732;DHT22;10527;52.124;5.196;2023-04-24T09:44:22;9.50;99.90
20732;DHT22;10527;52.124;5.196;2023-04-24T09:47:01;9.50;99.90
20732;DHT22;10527;52.124;5.196;2023-04-24T09:49:29;9.60;99.90
20732;DHT22;10527;52.124;5.196;2023-04-24T09:52:23;9.70;99.90
20732;DHT22;10527;52.124;5.196;2023-04-24T09:54:55;9.90;99.90
20732;DHT22;10527;52.124;5.196;2023-04-24T09:57:21;9.80;99.90
20732;DHT22;10527;52.124;5.196;2023-04-24T09:59:48;9.80;99.90
20732;DHT22;10527;52.124;5.196;2023-04-24T10:02:20;9.90;99.90
20732;DHT22;10527;52.124;5.196;2023-04-24T10:04:55;9.80;99.90
20732;DHT22;10527;52.124;5.196;2023-04-24T10:07:26;9.80;99.90
20732;DHT22;10527;52.124;5.196;2023-04-24T10:09:53;9.60;99.90
20732;DHT22;10527;52.124;5.196;2023-04-24T10:12:21;9.40;99.90
20732;DHT22;10527;52.124;5.196;2023-04-24T10:14:49;9.20;99.90
20732;DHT22;10527;52.124;5.196;2023-04-24T10:17:17;9.10;99.90
20732;DHT22;10527;52.124;5.196;2023-04-24T10:19:47;9.30;99.90
20732;DHT22;10527;52.124;5.196;2023-04-24T10:22:16;9.40;99.90
20732;DHT22;10527;52.124;5.196;2023-04-24T10:24:45;9.60;99.90
20732;DHT22;10527;52.124;5.196;2023-04-24T10:27:15;9.50;99.90
20732;DHT22;10527;52.124;5.196;2023-04-24T10:29:43;9.80;99.90
20732;DHT22;10527;52.124;5.196;2023-04-24T10:32:12;9.80;99.90
20732;DHT22;10527;52.124;5.196;2023-04-24T10:34:39;9.90;99.90
20732;DHT22;10527;52.124;5.196;2023-04-24T10:37:06;10.00;99.90
20732;DHT22;10527;52.124;5.196;2023-04-24T10:39:35;10.10;99.90
20732;DHT22;10527;52.124;5.196;2023-04-24T10:42:14;10.20;99.90
20732;DHT22;10527;52.124;5.196;2023-04-24T10:44:42;10.10;99.90
20732;DHT22;10527;52.124;5.196;2023-04-24T10:47:15;10.30;99.90
20732;DHT22;10527;52.124;5.196;2023-04-24T10:49:42;10.30;99.90
20732;DHT22;10527;52.124;5.196;2023-04-24T10:52:09;10.40;99.90
20732;DHT22;10527;52.124;5.196;2023-04-24T10:57:26;10.50;99.90
20732;DHT22;10527;52.124;5.196;2023-04-24T11:00:16;10.20;99.90
20732;DHT22;10527;52.124;5.196;2023-04-24T11:02:47;10.20;99.90
20732;DHT22;10527;52.124;5.196;2023-04-24T11:05:18;10.00;99.90
20732;DHT22;10527;52.124;5.196;2023-04-24T11:08:12;9.80;99.90
20732;DHT22;10527;52.124;5.196;2023-04-24T11:10:46;9.60;99.90
20732;DHT22;10527;52.124;5.196;2023-04-24T11:13:21;9.40;99.90
20732;DHT22;10527;52.124;5.196;2023-04-24T11:16:13;9.30;99.90
20732;DHT22;10527;52.124;5.196;2023-04-24T11:18:42;9.30;99.90
20732;DHT22;10527;52.124;5.196;2023-04-24T11:21:13;9.40;99.90
20732;DHT22;10527;52.124;5.196;2023-04-24T11:23:42;9.50;99.90
20732;DHT22;10527;52.124;5.196;2023-04-24T11:26:21;9.80;99.90
20732;DHT22;10527;52.124;5.196;2023-04-24T11:28:51;9.90;99.90
20732;DHT22;10527;52.124;5.196;2023-04-24T11:31:35;9.90;99.90
20732;DHT22;10527;52.124;5.196;2023-04-24T11:34:15;9.90;99.90
20732;DHT22;10527;52.124;5.196;2023-04-24T11:36:46;9.80;99.90
20732;DHT22;10527;52.124;5.196;2023-04-24T11:39:15;10.10;99.90
20732;DHT22;10527;52.124;5.196;2023-04-24T11:41:42;10.30;99.90
20732;DHT22;10527;52.124;5.196;2023-04-24T11:44:09;10.50;99.90
20732;DHT22;10527;52.124;5.196;2023-04-24T11:46:37;10.70;99.90
20732;DHT22;10527;52.124;5.196;2023-04-24T11:49:07;10.90;99.90
20732;DHT22;10527;52.124;5.196;2023-04-24T11:51:34;11.00;99.90
20732;DHT22;10527;52.124;5.196;2023-04-24T11:54:18;11.00;99.90
20732;DHT22;10527;52.124;5.196;2023-04-24T11:56:46;10.90;99.90
20732;DHT22;10527;52.124;5.196;2023-04-24T11:59:14;10.80;99.90
20732;DHT22;10527;52.124;5.196;2023-04-24T12:01:48;10.60;99.90
20732;DHT22;10527;52.124;5.196;2023-04-24T12:04:17;10.50;99.90
20732;DHT22;10527;52.124;5.196;2023-04-24T12:06:59;10.60;99.90
20732;DHT22;10527;52.124;5.196;2023-04-24T12:09:28;10.60;99.90
20732;DHT22;10527;52.124;5.196;2023-04-24T12:12:06;10.80;99.90
20732;DHT22;10527;52.124;5.196;2023-04-24T12:14:42;10.80;99.90
20732;DHT22;10527;52.124;5.196;2023-04-24T12:17:17;10.80;99.90
20732;DHT22;10527;52.124;5.196;2023-04-24T12:19:47;11.10;99.90
20732;DHT22;10527;52.124;5.196;2023-04-24T12:22:15;11.00;99.90
20732;DHT22;10527;52.124;5.196;2023-04-24T12:27:32;11.10;99.90
20732;DHT22;10527;52.124;5.196;2023-04-24T12:30:00;11.00;99.90
20732;DHT22;10527;52.124;5.196;2023-04-24T12:32:29;11.00;99.90
20732;DHT22;10527;52.124;5.196;2023-04-24T12:34:57;10.80;99.90
20732;DHT22;10527;52.124;5.196;2023-04-24T12:37:25;10.60;99.90
20732;DHT22;10527;52.124;5.196;2023-04-24T12:40:09;10.70;99.90
20732;DHT22;10527;52.124;5.196;2023-04-24T12:42:45;10.70;99.90
20732;DHT22;10527;52.124;5.196;2023-04-24T12:45:17;10.50;99.90
20732;DHT22;10527;52.124;5.196;2023-04-24T12:47:46;10.30;99.90
20732;DHT22;10527;52.124;5.196;2023-04-24T12:50:15;10.20;99.90
20732;DHT22;10527;52.124;5.196;2023-04-24T12:52:43;10.10;99.90
20732;DHT22;10527;52.124;5.196;2023-04-24T12:55:10;10.00;99.90
20732;DHT22;10527;52.124;5.196;2023-04-24T12:57:39;10.10;99.90
20732;DHT22;10527;52.124;5.196;2023-04-24T13:00:09;10.20;99.90
20732;DHT22;10527;52.124;5.196;2023-04-24T13:02:36;10.00;99.90
20732;DHT22;10527;52.124;5.196;2023-04-24T13:05:04;9.90;99.90
20732;DHT22;10527;52.124;5.196;2023-04-24T13:07:33;9.70;99.90
20732;DHT22;10527;52.124;5.196;2023-04-24T13:10:00;9.80;99.90
20732;DHT22;10527;52.124;5.196;2023-04-24T13:12:27;9.90;99.90
20732;DHT22;10527;52.124;5.196;2023-04-24T13:14:54;10.10;99.90
20732;DHT22;10527;52.124;5.196;2023-04-24T13:17:22;10.30;99.90
20732;DHT22;10527;52.124;5.196;2023-04-24T13:19:50;10.40;99.90
20732;DHT22;10527;52.124;5.196;2023-04-24T13:22:18;10.40;99.90
20732;DHT22;10527;52.124;5.196;2023-04-24T13:24:45;10.30;99.90
20732;DHT22;10527;52.124;5.196;2023-04-24T13:27:15;10.20;99.90
20732;DHT22;10527;52.124;5.196;2023-04-24T13:29:42;10.30;99.90
20732;DHT22;10527;52.124;5.196;2023-04-24T13:32:10;10.50;99.90
20732;DHT22;10527;52.124;5.196;2023-04-24T13:34:37;10.40;99.90
20732;DHT22;10527;52.124;5.196;2023-04-24T13:37:05;10.50;99.90
20732;DHT22;10527;52.124;5.196;2023-04-24T13:39:32;10.50;99.90
20732;DHT22;10527;52.124;5.196;2023-04-24T13:41:59;10.50;99.90
20732;DHT22;10527;52.124;5.196;2023-04-24T13:44:29;10.40;99.90
20732;DHT22;10527;52.124;5.196;2023-04-24T13:46:58;10.60;99.90
20732;DHT22;10527;52.124;5.196;2023-04-24T13:49:26;10.90;99.90
20732;DHT22;10527;52.124;5.196;2023-04-24T13:51:55;11.00;99.90
20732;DHT22;10527;52.124;5.196;2023-04-24T13:54:22;11.40;99.90
20732;DHT22;10527;52.124;5.196;2023-04-24T13:56:52;11.40;99.90
20732;DHT22;10527;52.124;5.196;2023-04-24T13:59:20;11.60;99.90
20732;DHT22;10527;52.124;5.196;2023-04-24T14:01:48;11.40;99.90
20732;DHT22;10527;52.124;5.196;2023-04-24T14:04:15;11.30;99.90
20732;DHT22;10527;52.124;5.196;2023-04-24T14:06:43;11.20;99.90
20732;DHT22;10527;52.124;5.196;2023-04-24T14:09:10;11.10;99.90
20732;DHT22;10527;52.124;5.196;2023-04-24T14:11:37;10.90;99.90
20732;DHT22;10527;52.124;5.196;2023-04-24T14:14:04;10.90;99.90
20732;DHT22;10527;52.124;5.196;2023-04-24T14:16:31;10.80;99.90
20732;DHT22;10527;52.124;5.196;2023-04-24T14:18:58;11.10;99.90
20732;DHT22;10527;52.124;5.196;2023-04-24T14:21:25;11.50;99.90
20732;DHT22;10527;52.124;5.196;2023-04-24T14:23:51;11.60;99.90
20732;DHT22;10527;52.124;5.196;2023-04-24T14:26:19;11.60;99.90
20732;DHT22;10527;52.124;5.196;2023-04-24T14:28:48;11.70;99.90
20732;DHT22;10527;52.124;5.196;2023-04-24T14:31:18;11.60;99.90
20732;DHT22;10527;52.124;5.196;2023-04-24T14:33:45;11.50;99.90
20732;DHT22;10527;52.124;5.196;2023-04-24T14:36:12;11.30;99.90
20732;DHT22;10527;52.124;5.196;2023-04-24T14:38:39;11.10;99.90
20732;DHT22;10527;52.124;5.196;2023-04-24T14:41:06;11.20;99.90
20732;DHT22;10527;52.124;5.196;2023-04-24T14:43:40;11.10;99.90
20732;DHT22;10527;52.124;5.196;2023-04-24T14:46:09;11.00;99.90
20732;DHT22;10527;52.124;5.196;2023-04-24T14:48:36;11.10;99.90
20732;DHT22;10527;52.124;5.196;2023-04-24T14:51:03;11.30;99.90
20732;DHT22;10527;52.124;5.196;2023-04-24T14:53:32;11.10;99.90
20732;DHT22;10527;52.124;5.196;2023-04-24T14:55:59;11.20;99.90
20732;DHT22;10527;52.124;5.196;2023-04-24T14:58:26;11.30;99.90
20732;DHT22;10527;52.124;5.196;2023-04-24T15:00:53;11.30;99.90
20732;DHT22;10527;52.124;5.196;2023-04-24T15:03:21;11.20;99.90
20732;DHT22;10527;52.124;5.196;2023-04-24T15:05:49;10.80;99.90
20732;DHT22;10527;52.124;5.196;2023-04-24T15:08:16;10.60;99.90
20732;DHT22;10527;52.124;5.196;2023-04-24T15:10:44;10.50;99.90
20732;DHT22;10527;52.124;5.196;2023-04-24T15:13:11;10.30;99.90
20732;DHT22;10527;52.124;5.196;2023-04-24T15:15:38;10.10;99.90
20732;DHT22;10527;52.124;5.196;2023-04-24T15:18:05;10.00;99.90
20732;DHT22;10527;52.124;5.196;2023-04-24T15:20:33;9.90;99.90
20732;DHT22;10527;52.124;5.196;2023-04-24T15:23:04;10.10;99.90
20732;DHT22;10527;52.124;5.196;2023-04-24T15:25:31;10.10;99.90
20732;DHT22;10527;52.124;5.196;2023-04-24T15:27:58;10.30;99.90
20732;DHT22;10527;52.124;5.196;2023-04-24T15:30:26;10.60;99.90
20732;DHT22;10527;52.124;5.196;2023-04-24T15:32:53;10.60;99.90
20732;DHT22;10527;52.124;5.196;2023-04-24T15:35:20;10.40;99.90
20732;DHT22;10527;52.124;5.196;2023-04-24T15:37:47;10.30;99.90
20732;DHT22;10527;52.124;5.196;2023-04-24T15:40:14;10.50;99.90
20732;DHT22;10527;52.124;5.196;2023-04-24T15:42:42;10.40;99.90
20732;DHT22;10527;52.124;5.196;2023-04-24T15:45:13;10.30;99.90
20732;DHT22;10527;52.124;5.196;2023-04-24T15:47:40;10.20;99.90
20732;DHT22;10527;52.124;5.196;2023-04-24T15:50:07;10.40;99.90
20732;DHT22;10527;52.124;5.196;2023-04-24T15:52:40;10.50;99.90